KMMT/MMT METAR and TAF weather

Enter ICAO airport designator
Station Type Date Time Source
KMMT METAR 2021/09/25 10:56 UTC NOAA

KMMT 251056Z AUTO 30003KT 10SM CLR 09/09 A3008 RMK AO2 SLP188 T00930093 $


Station Type Date Time Source
KMMT Decoded METAR 2021/09/25 10:56 UTC NOAA

McEntire Air National Guard Weather Facility Base, SC, United States (KMMT) 33-55N 080-48W
Sep 25, 2021 - 06:56 AM EDT / 2021.09.25 1056 UTC
Wind: from the WNW (300 degrees) at 3 MPH (3 KT):0
Visibility: 10 mile(s):0
Sky conditions: clear
Temperature: 48.7 F (9.3 C)
Dew Point: 48.7 F (9.3 C)
Relative Humidity: 100%
Pressure (altimeter): 30.08 in. Hg (1018 hPa)
ob: KMMT 251056Z AUTO 30003KT 10SM CLR 09/09 A3008 RMK AO2 SLP188 T00930093
cycle: 11

Station Type Date Time Source
KMMT TAF 2021/09/25 07:24 UTC NOAA

TAF KMMT 250700Z 2507/2613 VRB06KT 9999 SKC QNH3001INS TX24/2520Z TN11/2510Z

Example: see airport list